KPGD/PGD METAR and TAF weather

Enter ICAO airport designator
Station Type Date Time Source
KPGD METAR 2018/12/13 07:53 UTC NOAA

KPGD 130753Z AUTO 03004KT 10SM BKN060 13/11 A3016 RMK AO2 SLP212 T01280111


Station Type Date Time Source
KPGD Decoded METAR 2018/12/13 07:53 UTC NOAA

PUNTA GORDA CHARLOTTE COUNTY, FL, United States (KPGD) 26-55N 82-00W 7M
Dec 13, 2018 - 02:53 AM EST / 2018.12.13 0753 UTC
Wind: from the NNE (030 degrees) at 5 MPH (4 KT):0
Visibility: 10 mile(s):0
Sky conditions: mostly cloudy
Temperature: 55.0 F (12.8 C)
Dew Point: 52.0 F (11.1 C)
Relative Humidity: 89%
Pressure (altimeter): 30.16 in. Hg (1021 hPa)
ob: KPGD 130753Z AUTO 03004KT 10SM BKN060 13/11 A3016 RMK AO2 SLP212 T01280111
cycle: 8

Station Type Date Time Source
KPGD TAF 2018/12/13 06:39 UTC NOAA

TAF KPGD 130537Z 1306/1406 08006KT P6SM BKN060 OVC250
FM131500 10008KT P6SM BKN040 OVC080
FM131800 13009KT P6SM BKN040 OVC060
FM140000 12007KT P6SM BKN035 OVC060


Example: see airport list